• Join FlightAware (Why Join?)
  • Login
  • US Flag 
02:39PM EDT


 

Airport Tracker/Info


-or-


 

Live Flight TrackerFlight Track Log ✈ N201CR ✈ 20-Jun-2013 ✈ KPBI - MDLR / LRM

Flight Track Log - Related Links

Times and Time Zones

All times are in EDT time to prevent confusion due to time zone crossing. See the N201CR flight status page for this flight to view local times or setup timezone preferences in your user account.

Time Position Orientation Groundspeed Altitude Reporting Facility
EDT Latitude Longitude Course Direction KTS MPH feet Rate Location/Type
03:14PM 26.6825 -79.8514 127° Southeast 285 328 7,000  Level Miami Center
03:15PM 26.6803 -79.7583 92° East 295 339 9,200 2,460 Climbing Miami Center
03:16PM 26.6592 -79.6669 104° East 295 339 12,000 3,000 Climbing Miami Center
03:17PM 26.2810 -79.4867 90° East  Level Estimated
03:17PM 26.6103 -79.5939 127° Southeast 288 331 15,300  Level Miami Center
03:18PM 26.2137 -79.3856 90° East  Level Estimated
03:18PM 26.5639 -79.5161 124° Southeast 294 338 16,800  Level Miami Center
03:19PM 26.1463 -79.2847 127° Southeast  Level Estimated
03:19PM 26.5150 -79.4383 125° Southeast 320 368 18,000  Level Miami Center
03:20PM 26.4542 -79.3350 123° Southeast 344 396 19,500 1,200 Climbing Miami Center
03:21PM 26.3972 -79.2386 123° Southeast 371 427 20,400 900 Climbing Miami Center
03:22PM 26.3319 -79.1378 126° Southeast 383 441 21,400 960 Climbing Miami Center
03:23PM 26.2689 -79.0322 124° Southeast 399 459 22,400 960 Climbing Miami Center
03:24PM 26.2036 -78.9269 125° Southeast 406 467 23,400 960 Climbing Miami Center
03:25PM 26.1361 -78.8192 125° Southeast 411 473 24,400 960 Climbing Miami Center
03:26PM 26.0706 -78.7117 124° Southeast 417 480 25,400 960 Climbing Miami Center
03:27PM 26.0111 -78.6161 125° Southeast 422 486 26,400 1,020 Climbing Miami Center
03:28PM 25.9436 -78.5042 124° Southeast 429 494 27,500 1,020 Climbing Miami Center
03:29PM 25.8736 -78.3947 125° Southeast 434 499 28,500 960 Climbing Miami Center
03:30PM 25.8058 -78.2853 125° Southeast 434 499 29,500 960 Climbing Miami Center
03:31PM 25.7358 -78.1761 125° Southeast 434 499 30,500 960 Climbing Miami Center
03:32PM 25.6658 -78.0622 124° Southeast 434 499 31,500 960 Climbing Miami Center
03:33PM 25.5956 -77.9511 125° Southeast 434 499 32,500 960 Climbing Miami Center
03:34PM 25.5339 -77.8214 118° Southeast 434 499 33,500 960 Climbing Miami Center
03:35PM 25.4803 -77.6967 115° Southeast 434 499 34,500 960 Climbing Miami Center
03:36PM 25.4286 -77.5744 115° Southeast 439 505 35,500 900 Climbing Miami Center
03:37PM 25.3831 -77.4614 114° Southeast 439 505 36,400 960 Climbing Miami Center
03:38PM 25.3250 -77.3369 117° Southeast 444 511 37,500 1,020 Climbing Miami Center
03:39PM 25.2522 -77.2242 125° Southeast 449 517 38,500 960 Climbing Miami Center
03:40PM 25.1772 -77.1114 126° Southeast 454 522 39,500 960 Climbing Miami Center
03:41PM 25.1022 -77.0011 127° Southeast 454 522 40,500 720 Climbing Miami Center
03:42PM 25.0269 -76.8886 126° Southeast 454 522 41,000 240 Climbing Miami Center
03:43PM 24.9494 -76.7717 126° Southeast 466 536 41,000  Level Miami Center
03:44PM 24.8722 -76.6550 126° Southeast 471 542 41,000  Level Miami Center
03:45PM 24.7947 -76.5383 126° Southeast 471 542 41,000  Level Miami Center
03:46PM 24.7192 -76.4242 126° Southeast 471 542 41,000  Level Miami Center
03:47PM 24.6456 -76.3056 124° Southeast 471 542 41,000  Level Miami Center
03:48PM 24.5678 -76.1983 129° Southeast 471 542 41,000  Level Miami Center
03:49PM 24.4897 -76.0800 126° Southeast 466 536 41,000  Level Miami Center
03:50PM 24.4139 -75.9664 126° Southeast 466 536 41,000  Level Miami Center
03:51PM 24.3381 -75.8508 126° Southeast 466 536 41,000  Level Miami Center
03:52PM 24.2533 -75.7261 127° Southeast 466 536 41,000  Level Miami Center
03:53PM 24.1772 -75.6106 126° Southeast 466 536 41,000  Level Miami Center
03:54PM 24.1011 -75.4975 126° Southeast 466 536 41,000  Level Miami Center
03:55PM 24.0225 -75.3800 126° Southeast 472 543 41,000  Level Miami Center
03:56PM 23.9461 -75.2672 127° Southeast 472 543 41,000  Level Miami Center
03:57PM 23.8678 -75.1547 127° Southeast 472 543 41,000  Level Miami Center
03:58PM 23.7889 -75.0378 126° Southeast 472 543 41,000  Level Miami Center
03:59PM 23.7122 -74.9253 127° Southeast 472 543 41,000  Level Miami Center
04:00PM 23.6336 -74.8108 127° Southeast 472 543 41,000  Level Miami Center
04:01PM 23.5567 -74.7011 127° Southeast 472 543 41,000  Level Miami Center
04:02PM 23.4797 -74.5892 127° Southeast 466 536 41,000  Level Miami Center
04:03PM 23.4008 -74.4750 127° Southeast 466 536 41,000  Level Miami Center
04:04PM 23.3258 -74.3633 126° Southeast 466 536 41,000  Level Miami Center
04:05PM 23.2636 -74.2719 127° Southeast 466 536 41,000  Level Miami Center
04:06PM 23.1781 -74.1517 128° Southeast 466 536 41,000  Level Miami Center
04:07PM 23.1008 -74.0403 127° Southeast 466 536 41,000  Level Miami Center
04:08PM 23.0233 -73.9314 128° Southeast 461 531 41,000  Level Miami Center
04:09PM 22.9481 -73.8181 126° Southeast 461 531 41,000  Level Miami Center
04:10PM 22.8664 -73.7097 129° Southeast 461 531 41,000  Level Miami Center
04:11PM 22.7889 -73.5967 127° Southeast 461 531 41,000  Level Miami Center
04:12PM 22.7050 -73.4861 129° Southeast 461 531 41,000  Level Miami Center
04:13PM 22.6336 -73.3733 124° Southeast 461 531 41,000  Level Miami Center
04:14PM 22.5494 -73.2631 130° Southeast 461 531 41,000  Level Miami Center
04:15PM 22.4692 -73.1372 125° Southeast 461 531 41,000  Level Miami Center
04:16PM 22.3892 -73.0250 128° Southeast 466 536 41,000  Level Miami Center
04:17PM 22.3111 -72.9131 127° Southeast 466 536 41,000  Level Miami Center
04:18PM 22.2308 -72.8008 128° Southeast 471 542 41,000  Level Miami Center
04:19PM 22.1506 -72.6869 127° Southeast 471 542 41,000  Level Miami Center
04:20PM 22.0703 -72.5775 128° Southeast 471 542 41,000  Level Miami Center
04:21PM 21.9900 -72.4658 128° Southeast 471 542 41,000  Level Miami Center
04:22PM 21.9117 -72.3567 128° Southeast 471 542 41,000  Level Miami Center
04:23PM 21.8308 -72.2433 128° Southeast 471 542 41,000  Level Miami Center
04:24PM 21.7525 -72.1342 128° Southeast 471 542 41,000  Level Miami Center
04:25PM 21.6719 -72.0256 129° Southeast 471 542 41,000  Level Miami Center
04:26PM 21.5953 -71.9144 127° Southeast 471 542 41,000  Level Miami Center
04:27PM 21.5144 -71.8061 129° Southeast 471 542 41,000  Level Miami Center
04:28PM 21.4358 -71.6975 128° Southeast 471 542 41,000  Level Miami Center
04:29PM 21.3550 -71.5894 129° Southeast 471 542 41,000  Level Miami Center
04:30PM 21.2742 -71.4811 129° Southeast 471 542 41,000  Level Miami Center
04:31PM 21.1931 -71.3711 128° Southeast 471 542 41,000  Level Miami Center
04:32PM 21.1139 -71.2608 128° Southeast 471 542 41,000  Level Miami Center
04:33PM 21.0369 -71.1508 127° Southeast 471 542 41,000 -420 Level Miami Center
04:34PM 20.9556 -71.0411 128° Southeast 471 542 40,200 -900 Descending Miami Center
04:35PM 20.8764 -70.9336 128° Southeast 471 542 39,300 -600 Descending Miami Center
04:36PM 20.7953 -70.8261 129° Southeast 471 542 39,000 -180 Descending Miami Center
04:37PM 20.7181 -70.7189 128° Southeast 471 542 39,000  Level Miami Center
04:38PM 20.6386 -70.6117 128° Southeast 471 542 39,000  Level Miami Center
04:39PM 20.5572 -70.5047 129° Southeast 471 542 39,000  Level Miami Center
04:40PM 20.4778 -70.3978 128° Southeast 466 536 39,000  Level Miami Center
04:41PM 20.3983 -70.2889 128° Southeast 466 536 39,000 -840 Level Miami Center
04:42PM 20.3144 -70.1803 129° Southeast 466 536 37,400 -2,280 Descending Miami Center
04:43PM 20.2350 -70.0761 129° Southeast 466 536 34,500 -2,940 Descending Miami Center
04:44PM 20.1553 -69.9675 128° Southeast 466 536 31,600 -2,700 Descending Miami Center
04:45PM 20.0669 -69.8572 130° Southeast 472 543 29,200 -2,220 Descending Miami Center
04:46PM 19.9869 -69.7422 126° Southeast 478 550 27,200 -2,040 Descending Miami Center
04:48PM 19.8312 -69.6239 155° Southeast  Level FlightAware Approximate
04:55PM 19.0890 -69.2710 157° South  Level FlightAware Approximate
04:56PM 18.9817 -69.2233 157° South  Level FlightAware Approximate
04:57PM 18.8761 -69.1713 155° Southeast  Level FlightAware Approximate
04:58PM 18.7708 -69.1187 155° Southeast  Level FlightAware Approximate
04:59PM 18.6635 -69.0708 157° South  Level FlightAware Approximate
05:00PM 18.5620 -69.0120 137° Southeast  Level FlightAware Approximate
05:01PM 18.4563 -68.9632 162° South  Level FlightAware Approximate
05:02PM 18.4507 -68.9118 90° East  Level Estimated
05:03PM 18.4507 -68.9118 90° East  Level Estimated
05:04PM 18.4507 -68.9118 90° East  Level Estimated
05:05PM 18.4507 -68.9118 90° East  Level Estimated
05:06PM 18.4507 -68.9118 90° East  Level Estimated
05:07PM 18.4507 -68.9118 90° East  Level Estimated
05:08PM 18.4507 -68.9118 90° East  Level Estimated
05:09PM 18.4507 -68.9118 90° East  Level Estimated
05:10PM 18.4507 -68.9118 90° East  Level Estimated
05:11PM 18.4507 -68.9118 90° East  Level Estimated
05:12PM 18.4507 -68.9118 90° East  Level Estimated
05:13PM 18.4507 -68.9118 90° East  Level Estimated
05:14PM 18.4507 -68.9118 90° East  Level Estimated
05:15PM 18.4507 -68.9118 90° East  Level Estimated
05:16PM 18.4507 -68.9118 90° East  Level Estimated
05:17PM 18.4507 -68.9118 90° East  Level Estimated
05:18PM 18.4507 -68.9118 90° East  Level Estimated
05:19PM 18.4507 -68.9118 90° East  Level Estimated
05:20PM 18.4507 -68.9118 90° East  Level Estimated
05:21PM 18.4507 -68.9118 90° East  Level Estimated
05:22PM 18.4507 -68.9118 90° East  Level Estimated